createdAt,value
2019-04-05T00:00:48.289Z,13.70
2019-04-05T00:03:21.055Z,13.68
2019-04-05T00:05:53.889Z,13.72
2019-04-05T00:08:26.715Z,13.67
2019-04-05T00:10:59.559Z,13.67
2019-04-05T00:13:32.359Z,13.67
2019-04-05T00:16:05.344Z,13.63
2019-04-05T00:18:38.631Z,13.61
2019-04-05T00:21:11.401Z,13.60
2019-04-05T00:23:44.285Z,13.57
2019-04-05T00:26:17.138Z,13.54
2019-04-05T00:28:51.733Z,13.51
2019-04-05T00:31:26.625Z,13.50
2019-04-05T00:34:00.497Z,13.49
2019-04-05T00:36:33.444Z,13.47
2019-04-05T00:39:09.604Z,13.49
2019-04-05T00:41:42.441Z,13.47
2019-04-05T00:44:15.382Z,13.47
2019-04-05T00:46:48.183Z,13.46
2019-04-05T00:49:20.943Z,13.46
2019-04-05T00:51:53.754Z,13.49
2019-04-05T00:54:26.529Z,13.49
2019-04-05T00:56:59.887Z,13.50
2019-04-05T00:59:32.948Z,13.49
2019-04-05T01:02:06.365Z,13.51
2019-04-05T01:04:40.284Z,13.50
2019-04-05T01:07:13.095Z,13.51
2019-04-05T01:09:47.352Z,13.53
2019-04-05T01:12:21.843Z,13.53
2019-04-05T01:14:56.270Z,13.56
2019-04-05T01:17:29.086Z,13.57
2019-04-05T01:20:04.643Z,13.54
2019-04-05T01:22:37.610Z,13.56
2019-04-05T01:25:10.837Z,13.57
2019-04-05T01:27:44.435Z,13.53
2019-04-05T01:30:18.590Z,13.54
2019-04-05T01:32:51.454Z,13.50
2019-04-05T01:35:24.443Z,13.53
2019-04-05T01:37:57.985Z,13.51
2019-04-05T01:40:32.963Z,13.47
2019-04-05T01:43:06.033Z,13.46
2019-04-05T01:45:38.999Z,13.45
2019-04-05T01:48:12.103Z,13.43
2019-04-05T01:50:44.896Z,13.39
2019-04-05T01:53:17.872Z,13.39
2019-04-05T01:55:50.634Z,13.37
2019-04-05T01:58:23.418Z,13.35
2019-04-05T02:00:56.225Z,13.30
2019-04-05T02:03:30.062Z,13.29
2019-04-05T02:06:02.956Z,13.29
2019-04-05T02:08:35.766Z,13.28
2019-04-05T02:11:08.972Z,13.26
2019-04-05T02:13:42.042Z,13.26
2019-04-05T02:16:14.829Z,13.23
2019-04-05T02:18:47.826Z,13.22
2019-04-05T02:21:20.594Z,13.23
2019-04-05T02:23:53.479Z,13.18
2019-04-05T02:26:31.450Z,13.19
2019-04-05T02:29:04.248Z,13.16
2019-04-05T02:31:38.138Z,13.16
2019-04-05T02:34:10.930Z,13.11
2019-04-05T02:36:43.737Z,13.05
2019-04-05T02:39:16.604Z,13.01
2019-04-05T02:41:50.056Z,12.97
2019-04-05T02:44:24.525Z,12.91
2019-04-05T02:46:58.202Z,12.88
2019-04-05T02:49:33.044Z,12.85
2019-04-05T02:52:07.333Z,12.81
2019-04-05T02:54:40.804Z,12.80
2019-04-05T02:57:14.912Z,12.77
2019-04-05T02:59:48.793Z,12.72
2019-04-05T03:02:22.589Z,12.68
2019-04-05T03:04:55.693Z,12.64
2019-04-05T03:07:29.631Z,12.61
2019-04-05T03:10:02.835Z,12.56
2019-04-05T03:12:37.049Z,12.53
2019-04-05T03:15:10.495Z,12.51
2019-04-05T03:17:43.743Z,12.41
2019-04-05T03:20:16.525Z,12.37
2019-04-05T03:22:49.466Z,12.30
2019-04-05T03:25:22.255Z,12.26
2019-04-05T03:27:55.230Z,12.21
2019-04-05T03:30:28.497Z,12.15
2019-04-05T03:33:01.719Z,12.09
2019-04-05T03:35:34.784Z,12.03
2019-04-05T03:38:08.919Z,11.99
2019-04-05T03:40:42.324Z,11.94
2019-04-05T03:43:15.208Z,11.88
2019-04-05T03:45:48.287Z,11.82
2019-04-05T03:48:23.771Z,11.75
2019-04-05T03:50:56.968Z,11.65
2019-04-05T03:53:29.876Z,11.61
2019-04-05T03:56:03.276Z,11.60
2019-04-05T03:58:36.161Z,11.54
2019-04-05T04:01:09.450Z,11.49
2019-04-05T04:03:42.665Z,11.44
2019-04-05T04:06:17.256Z,11.39
2019-04-05T04:08:50.106Z,11.36
2019-04-05T04:11:23.384Z,11.29
2019-04-05T04:13:56.390Z,11.26
2019-04-05T04:16:30.209Z,11.20
2019-04-05T04:19:03.392Z,11.13
2019-04-05T04:22:18.652Z,11.10
2019-04-05T04:24:51.799Z,11.05
2019-04-05T04:27:25.240Z,11.03
2019-04-05T04:30:00.491Z,10.99
2019-04-05T04:32:33.671Z,10.96
2019-04-05T04:35:07.411Z,10.98
2019-04-05T04:37:40.200Z,10.95
2019-04-05T04:40:15.224Z,10.96
2019-04-05T04:42:48.484Z,10.92
2019-04-05T04:45:21.862Z,10.94
2019-04-05T04:47:55.550Z,10.94
2019-04-05T04:50:29.380Z,10.94
2019-04-05T04:53:02.704Z,10.96
2019-04-05T04:55:36.334Z,10.96
2019-04-05T04:58:09.296Z,11.02
2019-04-05T05:00:42.177Z,10.99
2019-04-05T05:03:15.453Z,11.06
2019-04-05T05:05:48.445Z,11.09
2019-04-05T05:08:21.267Z,11.10
2019-04-05T05:10:54.419Z,11.13
2019-04-05T05:13:28.959Z,11.13
2019-04-05T05:16:04.491Z,11.17
2019-04-05T05:18:45.004Z,11.17
2019-04-05T05:21:18.114Z,11.20
2019-04-05T05:23:50.888Z,11.23
2019-04-05T05:26:24.197Z,11.27
2019-04-05T05:28:57.102Z,11.29
2019-04-05T05:31:29.989Z,11.33
2019-04-05T05:34:03.063Z,11.37
2019-04-05T05:36:36.469Z,11.42
2019-04-05T05:39:10.251Z,11.47
2019-04-05T05:41:43.068Z,11.49
2019-04-05T05:44:15.939Z,11.56
2019-04-05T05:46:48.735Z,11.61
2019-04-05T05:49:21.513Z,11.67
2019-04-05T05:51:54.952Z,11.75
2019-04-05T05:54:27.739Z,11.81
2019-04-05T05:57:00.657Z,11.88
2019-04-05T05:59:33.637Z,11.96
2019-04-05T06:02:07.399Z,12.01
2019-04-05T06:04:40.526Z,12.11
2019-04-05T06:07:13.393Z,12.19
2019-04-05T06:09:47.760Z,12.30
2019-04-05T06:12:20.658Z,12.40
2019-04-05T06:14:55.403Z,12.51
2019-04-05T06:17:28.160Z,12.63
2019-04-05T06:20:00.927Z,12.74
2019-04-05T06:22:33.924Z,12.84
2019-04-05T06:25:07.282Z,12.94
2019-04-05T06:27:40.060Z,13.05
2019-04-05T06:30:13.129Z,13.12
2019-04-05T06:32:46.056Z,13.21
2019-04-05T06:35:19.168Z,13.30
2019-04-05T06:37:52.010Z,13.39
2019-04-05T06:40:25.073Z,13.47
2019-04-05T06:42:57.828Z,13.57
2019-04-05T06:45:30.719Z,13.64
2019-04-05T06:48:03.573Z,13.73
2019-04-05T06:50:36.336Z,13.78
2019-04-05T06:53:09.144Z,13.87
2019-04-05T06:55:42.013Z,13.95
2019-04-05T06:58:19.882Z,14.02
2019-04-05T07:00:56.839Z,14.09
2019-04-05T07:03:23.882Z,14.12
2019-04-05T07:05:56.669Z,14.21
2019-04-05T07:08:29.512Z,14.25
2019-04-05T07:11:02.283Z,14.33
2019-04-05T07:13:35.204Z,14.37
2019-04-05T07:16:10.989Z,14.46
2019-04-05T07:18:43.091Z,14.62
2019-04-05T07:21:17.457Z,14.71
2019-04-05T07:23:50.402Z,14.88
2019-04-05T07:26:23.274Z,15.02
2019-04-05T07:28:56.395Z,15.19
2019-04-05T07:31:29.353Z,15.34
2019-04-05T07:34:02.266Z,15.47
2019-04-05T07:36:35.251Z,15.65
2019-04-05T07:39:09.455Z,15.73
2019-04-05T07:41:42.434Z,15.87
2019-04-05T07:44:15.203Z,16.08
2019-04-05T07:46:48.139Z,16.25
2019-04-05T07:49:21.094Z,16.46
2019-04-05T07:51:54.048Z,16.66
2019-04-05T07:54:26.849Z,16.87
2019-04-05T07:57:01.567Z,17.04
2019-04-05T07:59:38.012Z,17.22
2019-04-05T08:02:12.276Z,17.39
2019-04-05T08:04:45.171Z,17.59
2019-04-05T08:07:19.424Z,17.70
2019-04-05T08:09:54.542Z,17.82
2019-04-05T08:12:28.145Z,17.99
2019-04-05T08:15:01.182Z,18.13
2019-04-05T08:17:34.138Z,18.28
2019-04-05T08:20:07.601Z,18.47
2019-04-05T08:22:40.543Z,18.66
2019-04-05T08:25:13.951Z,18.86
2019-04-05T08:27:46.918Z,19.07
2019-04-05T08:30:19.871Z,19.26
2019-04-05T08:32:52.624Z,19.44
2019-04-05T08:35:25.421Z,19.65
2019-04-05T08:37:59.669Z,19.86
2019-04-05T08:40:32.757Z,20.12
2019-04-05T08:43:05.636Z,20.34
2019-04-05T08:45:38.431Z,20.55
2019-04-05T08:48:11.285Z,20.76
2019-04-05T08:50:44.293Z,21.03
2019-04-05T08:53:17.090Z,21.24
2019-04-05T08:55:49.886Z,21.37
2019-04-05T08:58:33.322Z,21.53
2019-04-05T09:00:58.420Z,21.69
2019-04-05T09:03:31.319Z,21.88
2019-04-05T09:06:04.113Z,22.09
2019-04-05T09:08:37.015Z,22.29
2019-04-05T09:11:09.776Z,22.44
2019-04-05T09:13:42.810Z,22.51
2019-04-05T09:16:16.773Z,22.51
2019-04-05T09:18:49.739Z,22.61
2019-04-05T09:21:22.637Z,22.61
2019-04-05T09:23:55.535Z,22.57
2019-04-05T09:26:28.328Z,22.54
2019-04-05T09:29:01.128Z,22.60
2019-04-05T09:31:34.028Z,22.66
2019-04-05T09:34:07.013Z,22.66
2019-04-05T09:36:40.014Z,22.64
2019-04-05T09:39:15.708Z,22.66
2019-04-05T09:41:47.472Z,22.64
2019-04-05T09:44:20.463Z,22.60
2019-04-05T09:46:53.274Z,22.51
2019-04-05T09:49:36.076Z,22.37
2019-04-05T09:52:00.895Z,22.26
2019-04-05T09:54:34.004Z,22.15
2019-04-05T09:57:06.887Z,22.09
2019-04-05T09:59:40.253Z,22.03
2019-04-05T10:02:13.150Z,22.01
2019-04-05T10:04:46.010Z,21.96
2019-04-05T10:07:18.986Z,21.86
2019-04-05T10:09:51.767Z,21.82
2019-04-05T10:12:24.846Z,21.81
2019-04-05T10:14:57.622Z,21.84
2019-04-05T10:17:30.521Z,21.89
2019-04-05T10:20:03.394Z,21.89
2019-04-05T10:22:36.356Z,21.92
2019-04-05T10:25:09.645Z,22.03
2019-04-05T10:27:42.449Z,22.23
2019-04-05T10:30:15.641Z,22.50
2019-04-05T10:32:48.460Z,22.77
2019-04-05T10:35:21.405Z,23.05
2019-04-05T10:37:54.250Z,23.28
2019-04-05T10:40:27.032Z,23.47
2019-04-05T10:42:59.871Z,23.74
2019-04-05T10:45:32.806Z,23.93
2019-04-05T10:48:05.690Z,24.12
2019-04-05T10:50:38.492Z,24.29
2019-04-05T10:53:11.397Z,24.43
2019-04-05T10:55:44.223Z,24.59
2019-04-05T10:58:17.373Z,24.70
2019-04-05T11:00:50.232Z,24.84
2019-04-05T11:03:24.226Z,24.96
2019-04-05T11:05:57.217Z,25.06
2019-04-05T11:08:30.055Z,25.14
2019-04-05T11:11:02.838Z,25.18
2019-04-05T11:13:35.944Z,25.22
2019-04-05T11:16:08.765Z,25.29
2019-04-05T11:18:44.925Z,25.39
2019-04-05T11:21:18.337Z,25.45
2019-04-05T11:23:53.608Z,25.50
2019-04-05T11:26:26.263Z,25.41
2019-04-05T11:28:59.125Z,25.27
2019-04-05T11:31:32.040Z,25.27
2019-04-05T11:34:07.295Z,25.27
2019-04-05T11:36:41.172Z,25.36
2019-04-05T11:39:15.865Z,25.49
2019-04-05T11:41:52.001Z,25.56
2019-04-05T11:44:26.390Z,25.55
2019-04-05T11:46:59.206Z,25.50
2019-04-05T11:49:34.836Z,25.46
2019-04-05T11:52:07.642Z,25.45
2019-04-05T11:54:40.695Z,25.39
2019-04-05T11:57:14.080Z,25.36
2019-04-05T11:59:48.589Z,25.35
2019-04-05T12:02:38.170Z,25.36
2019-04-05T12:05:12.995Z,25.35
2019-04-05T12:07:45.837Z,25.35
2019-04-05T12:10:19.554Z,25.32
2019-04-05T12:12:52.471Z,25.28
2019-04-05T12:15:25.387Z,25.22
2019-04-05T12:17:58.680Z,25.13
2019-04-05T12:20:33.246Z,25.11
2019-04-05T12:23:06.250Z,25.15
2019-04-05T12:25:39.028Z,25.14
2019-04-05T12:28:12.247Z,25.17
2019-04-05T12:30:46.662Z,25.11
2019-04-05T12:33:20.451Z,25.06
2019-04-05T12:35:56.465Z,25.01
2019-04-05T12:38:34.570Z,25.03
2019-04-05T12:41:10.672Z,24.97
2019-04-05T12:43:44.610Z,24.94
2019-04-05T12:46:16.789Z,24.90
2019-04-05T12:48:49.698Z,24.83
2019-04-05T12:51:22.571Z,24.73
2019-04-05T12:53:56.745Z,24.64
2019-04-05T12:56:29.862Z,24.55
2019-04-05T12:59:02.643Z,24.50
2019-04-05T13:01:35.460Z,24.45
2019-04-05T13:04:08.318Z,24.42
2019-04-05T13:06:42.396Z,24.42
2019-04-05T13:09:15.321Z,24.41
2019-04-05T13:11:48.417Z,24.34
2019-04-05T13:14:21.221Z,24.28
2019-04-05T13:16:55.422Z,24.31
2019-04-05T13:19:30.315Z,24.32
2019-04-05T13:22:04.980Z,24.31
2019-04-05T13:24:40.288Z,24.26
2019-04-05T13:27:12.513Z,24.21
2019-04-05T13:29:47.344Z,24.16
2019-04-05T13:32:22.357Z,24.12
2019-04-05T13:34:55.797Z,24.07
2019-04-05T13:37:30.880Z,24.01
2019-04-05T13:40:06.252Z,23.90
2019-04-05T13:42:39.439Z,23.84
2019-04-05T13:45:12.765Z,23.76
2019-04-05T13:47:45.658Z,23.67
2019-04-05T13:50:19.511Z,23.63
2019-04-05T13:52:52.486Z,23.56
2019-04-05T13:55:25.253Z,23.52
2019-04-05T13:58:01.762Z,23.46
2019-04-05T14:00:35.814Z,23.46
2019-04-05T14:03:08.657Z,23.43
2019-04-05T14:05:41.572Z,23.40
2019-04-05T14:08:15.839Z,23.40
2019-04-05T14:10:49.147Z,23.39
2019-04-05T14:13:22.030Z,23.36
2019-04-05T14:15:54.839Z,23.28
2019-04-05T14:18:29.071Z,23.26
2019-04-05T14:21:01.863Z,23.18
2019-04-05T14:23:36.459Z,23.12
2019-04-05T14:26:12.450Z,23.03
2019-04-05T14:28:45.320Z,22.99
2019-04-05T14:31:23.194Z,22.97
2019-04-05T14:33:59.605Z,22.94
2019-04-05T14:36:32.749Z,22.89
2019-04-05T14:39:09.252Z,22.82
2019-04-05T14:41:42.139Z,22.84
2019-04-05T14:44:16.079Z,22.77
2019-04-05T14:46:48.900Z,22.68
2019-04-05T14:49:21.755Z,22.63
2019-04-05T14:51:56.576Z,22.54
2019-04-05T14:54:30.178Z,22.50
2019-04-05T14:57:05.858Z,22.47
2019-04-05T14:59:39.018Z,22.42
2019-04-05T15:02:11.935Z,22.40
2019-04-05T15:04:44.910Z,22.37
2019-04-05T15:07:20.956Z,22.32
2019-04-05T15:09:55.634Z,22.27
2019-04-05T15:12:29.159Z,22.23
2019-04-05T15:15:02.370Z,22.19
2019-04-05T15:17:47.371Z,22.17
2019-04-05T15:20:10.175Z,22.15
2019-04-05T15:22:43.111Z,22.13
2019-04-05T15:25:17.502Z,22.15
2019-04-05T15:27:53.832Z,22.11
2019-04-05T15:30:26.622Z,22.09
2019-04-05T15:33:03.572Z,22.12
2019-04-05T15:35:36.476Z,22.11
2019-04-05T15:38:09.285Z,22.08
2019-04-05T15:40:42.155Z,22.09
2019-04-05T15:43:15.037Z,22.13
2019-04-05T15:45:47.904Z,22.11
2019-04-05T15:48:22.811Z,22.05
2019-04-05T15:50:57.806Z,22.02
2019-04-05T15:53:32.107Z,21.95
2019-04-05T15:56:05.314Z,21.89
2019-04-05T15:58:38.169Z,21.75
2019-04-05T16:01:11.714Z,21.54
2019-04-05T16:03:44.758Z,21.27
2019-04-05T16:06:17.716Z,21.03
2019-04-05T16:08:52.118Z,20.82
2019-04-05T16:11:25.048Z,20.52
2019-04-05T16:13:57.923Z,20.24
2019-04-05T16:16:32.190Z,19.97
2019-04-05T16:19:05.139Z,19.73
2019-04-05T16:21:38.065Z,19.54
2019-04-05T16:24:10.904Z,19.35
2019-04-05T16:26:43.812Z,19.18
2019-04-05T16:29:16.718Z,19.04
2019-04-05T16:31:49.747Z,18.94
2019-04-05T16:34:22.740Z,18.83
2019-04-05T16:36:55.644Z,18.75
2019-04-05T16:39:28.544Z,18.66
2019-04-05T16:42:01.502Z,18.56
2019-04-05T16:44:34.722Z,18.48
2019-04-05T16:47:07.658Z,18.40
2019-04-05T16:49:40.904Z,18.36
2019-04-05T16:52:13.955Z,18.28
2019-04-05T16:54:46.847Z,18.24
2019-04-05T16:57:20.046Z,18.18
2019-04-05T16:59:52.994Z,18.11
2019-04-05T17:02:25.929Z,18.07
2019-04-05T17:04:59.948Z,18.01
2019-04-05T17:07:33.076Z,17.99
2019-04-05T17:10:06.671Z,17.93
2019-04-05T17:12:39.807Z,17.89
2019-04-05T17:15:12.966Z,17.85
2019-04-05T17:17:45.948Z,17.80
2019-04-05T17:20:19.116Z,17.76
2019-04-05T17:22:58.012Z,17.73
2019-04-05T17:25:26.829Z,17.70
2019-04-05T17:28:00.432Z,17.65
2019-04-05T17:30:36.119Z,17.61
2019-04-05T17:33:08.375Z,17.55
2019-04-05T17:35:41.388Z,17.53
2019-04-05T17:38:14.514Z,17.50
2019-04-05T17:40:48.968Z,17.46
2019-04-05T17:43:21.913Z,17.42
2019-04-05T17:45:55.556Z,17.38
2019-04-05T17:48:28.383Z,17.35
2019-04-05T17:51:01.307Z,17.32
2019-04-05T17:53:34.167Z,17.29
2019-04-05T17:56:07.315Z,17.22
2019-04-05T17:58:40.853Z,17.21
2019-04-05T18:01:13.875Z,17.15
2019-04-05T18:03:46.800Z,17.11
2019-04-05T18:06:19.717Z,17.10
2019-04-05T18:08:52.615Z,17.06
2019-04-05T18:11:25.578Z,17.03
2019-04-05T18:13:58.523Z,16.99
2019-04-05T18:16:31.575Z,16.94
2019-04-05T18:19:04.419Z,16.96
2019-04-05T18:21:37.509Z,16.89
2019-04-05T18:24:10.580Z,16.84
2019-04-05T18:26:43.540Z,16.84
2019-04-05T18:29:16.390Z,16.81
2019-04-05T18:31:49.348Z,16.79
2019-04-05T18:34:22.427Z,16.79
2019-04-05T18:36:55.521Z,16.73
2019-04-05T18:39:31.698Z,16.72
2019-04-05T18:42:04.544Z,16.67
2019-04-05T18:44:37.590Z,16.67
2019-04-05T18:47:10.749Z,16.63
2019-04-05T18:49:43.665Z,16.60
2019-04-05T18:52:16.582Z,16.60
2019-04-05T18:54:49.565Z,16.56
2019-04-05T18:57:22.620Z,16.56
2019-04-05T18:59:55.605Z,16.53
2019-04-05T19:02:28.565Z,16.49
2019-04-05T19:05:01.414Z,16.49
2019-04-05T19:07:34.923Z,16.46
2019-04-05T19:10:08.660Z,16.46
2019-04-05T19:12:41.698Z,16.45
2019-04-05T19:15:14.862Z,16.42
2019-04-05T19:17:48.948Z,16.36
2019-04-05T19:20:21.789Z,16.38
2019-04-05T19:22:54.658Z,16.35
2019-04-05T19:25:27.484Z,16.35
2019-04-05T19:28:00.524Z,16.32
2019-04-05T19:48:36.316Z,16.20
2019-04-05T19:51:09.393Z,16.18
2019-04-05T19:53:42.246Z,16.15
2019-04-05T19:56:15.292Z,16.14
2019-04-05T19:58:48.243Z,16.11
2019-04-05T20:01:21.160Z,16.08
2019-04-05T20:03:54.049Z,16.04
2019-04-05T20:06:26.930Z,16.04
2019-04-05T20:08:59.823Z,16.01
2019-04-05T20:11:34.291Z,16.00
2019-04-05T20:14:07.400Z,15.97
2019-04-05T20:16:41.456Z,15.95
2019-04-05T20:19:15.677Z,15.91
2019-04-05T20:21:48.590Z,15.87
2019-04-05T20:24:23.584Z,15.87
2019-04-05T20:26:56.648Z,15.81
2019-04-05T20:29:29.545Z,15.83
2019-04-05T20:32:02.458Z,15.77
2019-04-05T20:34:35.540Z,15.76
2019-04-05T20:37:08.433Z,15.73
2019-04-05T20:39:41.223Z,15.70
2019-04-05T20:42:14.310Z,15.67
2019-04-05T20:44:47.340Z,15.63
2019-04-05T20:47:20.508Z,15.63
2019-04-05T20:49:53.490Z,15.57
2019-04-05T20:52:26.398Z,15.56
2019-04-05T20:55:02.745Z,15.55
2019-04-05T20:57:35.713Z,15.50
2019-04-05T21:00:10.446Z,15.46
2019-04-05T21:02:44.179Z,15.46
2019-04-05T21:05:25.397Z,15.38
2019-04-05T21:07:51.754Z,15.35
2019-04-05T21:10:24.857Z,15.32
2019-04-05T21:12:57.921Z,15.29
2019-04-05T21:15:30.817Z,15.25
2019-04-05T21:18:03.961Z,15.21
2019-04-05T21:20:37.987Z,15.17
2019-04-05T21:23:10.915Z,15.14
2019-04-05T21:25:43.769Z,15.09
2019-04-05T21:28:16.555Z,15.04
2019-04-05T21:30:50.349Z,15.00
2019-04-05T21:33:25.097Z,14.95
2019-04-05T21:35:58.011Z,14.94
2019-04-05T21:38:30.951Z,14.88
2019-04-05T21:41:03.780Z,14.83
2019-04-05T21:43:36.603Z,14.80
2019-04-05T21:46:09.671Z,14.77
2019-04-05T21:48:42.530Z,14.73
2019-04-05T21:51:16.346Z,14.70
2019-04-05T21:53:49.481Z,14.64
2019-04-05T21:56:22.272Z,14.59
2019-04-05T21:58:55.082Z,14.56
2019-04-05T22:01:28.182Z,14.50
2019-04-05T22:04:02.710Z,14.43
2019-04-05T22:06:35.577Z,14.40
2019-04-05T22:09:10.313Z,14.33
2019-04-05T22:11:43.282Z,14.29
2019-04-05T22:14:16.126Z,14.25
2019-04-05T22:16:48.920Z,14.19
2019-04-05T22:19:21.737Z,14.15
2019-04-05T22:21:54.548Z,14.08
2019-04-05T22:24:27.507Z,14.00
2019-04-05T22:27:00.417Z,13.95
2019-04-05T22:29:33.405Z,13.90
2019-04-05T22:32:08.043Z,13.84
2019-04-05T22:34:40.819Z,13.80
2019-04-05T22:37:13.604Z,13.74
2019-04-05T22:39:46.417Z,13.70
2019-04-05T22:42:20.395Z,13.63
2019-04-05T22:44:55.687Z,13.61
2019-04-05T22:47:29.569Z,13.54
2019-04-05T22:50:02.681Z,13.49
2019-04-05T22:52:36.055Z,13.45
2019-04-05T22:55:11.397Z,13.42
2019-04-05T22:57:43.824Z,13.37
2019-04-05T23:00:18.365Z,13.33
2019-04-05T23:02:52.758Z,13.28
2019-04-05T23:05:25.760Z,13.23
2019-04-05T23:07:58.745Z,13.21
2019-04-05T23:10:31.669Z,13.16
2019-04-05T23:13:04.607Z,13.14
2019-04-05T23:15:37.582Z,13.07
2019-04-05T23:18:10.591Z,13.02
2019-04-05T23:20:43.735Z,12.99
2019-04-05T23:23:16.722Z,12.97
2019-04-05T23:25:49.905Z,12.89
2019-04-05T23:28:22.820Z,12.88
2019-04-05T23:30:55.779Z,12.82
2019-04-05T23:33:30.632Z,12.80
2019-04-05T23:36:03.476Z,12.80
2019-04-05T23:38:36.509Z,12.75
2019-04-05T23:41:10.880Z,12.70
2019-04-05T23:43:44.094Z,12.66
2019-04-05T23:46:19.245Z,12.63
2019-04-05T23:48:52.026Z,12.60
2019-04-05T23:51:24.858Z,12.59
2019-04-05T23:53:57.792Z,12.56
2019-04-05T23:56:30.580Z,12.51
2019-04-05T23:59:07.153Z,12.47
